Time;durP1;ratioP1;P1;durP2;ratioP2;P2;SDS_P1;SDS_P2;PMS_P1;PMS_P2;Temp;Humidity;BMP_temperature;BMP_pressure;BME280_temperature;BME280_humidity;BME280_pressure;Samples;Min_cycle;Max_cycle;Signal;HPM_P1;HPM_P2
2022/04/27 00:01:23;;;;;;;19.58;10.50;;;;;;;7.29;69.17;102320.03;5082970;28;20005;-78
2022/04/27 00:03:48;;;;;;;18.15;10.55;;;;;;;7.24;69.08;102326.66;5078561;28;20270;-77
2022/04/27 00:06:13;;;;;;;17.55;10.43;;;;;;;7.20;69.18;102324.66;5084085;28;20195;-77
2022/04/27 00:08:39;;;;;;;18.25;11.05;;;;;;;7.14;69.39;102322.59;5077600;28;20269;-78
2022/04/27 00:11:04;;;;;;;16.17;9.82;;;;;;;7.14;69.75;102326.88;5084264;28;20029;-78
2022/04/27 00:13:30;;;;;;;18.85;10.38;;;;;;;7.12;69.40;102328.47;5083500;28;20032;-78
2022/04/27 00:15:55;;;;;;;19.13;10.43;;;;;;;7.09;69.91;102321.38;5084053;28;20017;-78
2022/04/27 00:18:21;;;;;;;18.45;11.23;;;;;;;7.06;69.91;102316.03;5083067;28;20031;-78
2022/04/27 00:20:46;;;;;;;18.15;10.38;;;;;;;7.04;70.27;102319.31;5083579;28;20044;-78
2022/04/27 00:23:11;;;;;;;16.58;9.70;;;;;;;7.02;70.27;102313.16;5083930;28;20020;-78
2022/04/27 00:25:37;;;;;;;20.25;10.50;;;;;;;7.01;70.18;102320.03;5081869;28;20258;-78
2022/04/27 00:28:02;;;;;;;19.42;10.93;;;;;;;6.99;70.00;102319.03;5081315;28;20178;-77
2022/04/27 00:30:27;;;;;;;19.98;11.20;;;;;;;6.94;70.57;102323.06;5076262;28;20035;-77
2022/04/27 00:32:53;;;;;;;18.23;10.75;;;;;;;6.92;70.59;102328.16;5082727;28;20314;-77
2022/04/27 00:35:18;;;;;;;19.83;10.70;;;;;;;6.93;70.05;102326.44;5083502;28;20028;-77
2022/04/27 00:37:43;;;;;;;17.75;10.52;;;;;;;6.87;69.97;102320.88;5083851;28;20027;-77
2022/04/27 00:40:09;;;;;;;17.63;10.27;;;;;;;6.78;70.12;102322.09;5081321;28;20051;-77
2022/04/27 00:42:35;;;;;;;17.77;9.77;;;;;;;6.76;70.66;102327.97;5082671;28;20047;-77
2022/04/27 00:45:02;;;;;;;18.40;10.55;;;;;;;6.69;70.30;102337.06;5081172;28;20020;-77
2022/04/27 00:47:30;;;;;;;20.30;10.50;;;;;;;6.67;70.39;102325.69;5079156;28;20028;-77
2022/04/27 00:49:57;;;;;;;17.95;11.15;;;;;;;6.65;70.43;102329.88;5078880;28;20020;-77
2022/04/27 00:52:24;;;;;;;19.75;10.63;;;;;;;6.64;70.89;102328.09;5078378;28;20032;-77
2022/04/27 00:54:53;;;;;;;17.23;11.18;;;;;;;6.64;70.97;102338.44;5073139;28;20025;-77
2022/04/27 00:57:19;;;;;;;18.63;11.27;;;;;;;6.66;70.78;102336.84;5082773;28;20039;-78
2022/04/27 00:59:46;;;;;;;19.33;10.57;;;;;;;6.60;71.00;102337.38;5082947;28;20165;-78
2022/04/27 01:02:11;;;;;;;18.27;10.23;;;;;;;6.58;70.73;102332.88;5083607;28;20013;-77
2022/04/27 01:04:38;;;;;;;15.85;9.93;;;;;;;6.54;71.18;102336.06;5075547;28;20031;-77
2022/04/27 01:07:05;;;;;;;17.95;10.75;;;;;;;6.49;71.05;102338.38;5083363;28;20028;-78
2022/04/27 01:09:31;;;;;;;19.02;10.98;;;;;;;6.45;71.59;102346.72;5083742;28;20024;-78
2022/04/27 01:11:57;;;;;;;21.98;10.85;;;;;;;6.43;71.38;102341.47;5077165;28;20020;-77
2022/04/27 01:14:23;;;;;;;18.30;10.48;;;;;;;6.41;71.31;102348.22;5081760;28;20032;-78
2022/04/27 01:16:52;;;;;;;20.80;11.13;;;;;;;6.36;71.47;102346.16;5083451;28;20039;-77
2022/04/27 01:19:19;;;;;;;16.85;10.20;;;;;;;6.37;71.49;102350.50;5083008;28;20075;-78
2022/04/27 01:21:44;;;;;;;20.05;10.50;;;;;;;6.33;71.34;102354.59;5083549;28;20016;-78
2022/04/27 01:24:11;;;;;;;20.35;10.60;;;;;;;6.26;71.98;102352.41;5083148;28;20080;-78
2022/04/27 01:26:37;;;;;;;19.48;10.27;;;;;;;6.22;71.85;102350.41;5086008;28;20005;-78
2022/04/27 01:29:03;;;;;;;18.00;10.40;;;;;;;6.17;71.77;102349.19;5086571;28;20091;-78
2022/04/27 01:31:28;;;;;;;17.02;9.77;;;;;;;6.13;71.01;102355.00;5085629;28;20214;-77
2022/04/27 01:33:55;;;;;;;18.00;10.00;;;;;;;6.12;71.50;102350.59;5084544;28;20043;-77
2022/04/27 01:36:20;;;;;;;18.08;10.20;;;;;;;6.09;71.43;102352.19;5075602;28;20255;-77
2022/04/27 01:38:45;;;;;;;17.73;10.35;;;;;;;6.06;71.61;102351.97;5085933;28;20040;-77
2022/04/27 01:41:11;;;;;;;16.90;10.23;;;;;;;6.03;71.70;102356.06;5082941;28;20016;-78
2022/04/27 01:43:37;;;;;;;20.75;9.98;;;;;;;6.00;72.31;102353.28;5085687;28;20027;-77
2022/04/27 01:46:05;;;;;;;23.05;10.85;;;;;;;5.97;72.59;102353.97;5083217;28;20012;-77
2022/04/27 01:48:31;;;;;;;18.70;11.25;;;;;;;5.96;72.61;102354.72;5081147;28;20279;-77
2022/04/27 01:50:56;;;;;;;18.15;10.80;;;;;;;5.92;72.66;102355.31;5079726;28;20013;-77
2022/04/27 01:56:06;;;;;;;19.42;10.73;;;;;;;5.88;73.06;102355.88;5085789;28;20099;-77
2022/04/27 01:58:32;;;;;;;19.20;10.82;;;;;;;5.89;73.11;102362.88;5085153;28;20046;-77
2022/04/27 02:00:58;;;;;;;19.15;10.45;;;;;;;5.82;72.86;102355.47;5085637;28;20174;-77
2022/04/27 02:03:23;;;;;;;18.90;11.02;;;;;;;5.69;72.63;102364.09;5085736;28;20083;-77
2022/04/27 02:05:49;;;;;;;18.17;10.82;;;;;;;5.58;73.25;102359.09;5086465;28;20040;-77
2022/04/27 02:08:15;;;;;;;17.38;10.60;;;;;;;5.57;73.40;102365.03;5071564;28;20024;-77
2022/04/27 02:10:41;;;;;;;18.95;11.77;;;;;;;5.58;74.17;102368.56;5080870;28;20016;-77
2022/04/27 02:13:08;;;;;;;18.08;10.25;;;;;;;5.60;73.91;102363.47;5081366;28;20372;-77
2022/04/27 02:15:34;;;;;;;24.23;11.15;;;;;;;5.58;74.21;102368.56;5084640;28;20020;-77
2022/04/27 02:18:00;;;;;;;19.48;11.15;;;;;;;5.49;74.48;102368.81;5083752;28;20025;-77
2022/04/27 02:20:26;;;;;;;19.05;10.98;;;;;;;5.39;73.71;102367.28;5086345;28;20040;-78
2022/04/27 02:22:52;;;;;;;22.83;11.75;;;;;;;5.19;74.08;102370.16;5081778;28;20259;-77
2022/04/27 02:25:20;;;;;;;21.05;11.48;;;;;;;5.07;75.07;102372.78;5086000;28;20179;-77
2022/04/27 02:27:46;;;;;;;20.67;11.65;;;;;;;5.01;75.18;102375.84;5080865;28;20305;-77
2022/04/27 02:30:12;;;;;;;19.90;11.30;;;;;;;5.01;74.94;102375.84;5085261;28;20020;-78
2022/04/27 02:32:38;;;;;;;21.05;11.10;;;;;;;5.05;74.63;102377.84;5083009;28;20063;-78
2022/04/27 02:35:07;;;;;;;17.33;10.48;;;;;;;5.08;74.09;102377.16;5078842;28;20021;-77
2022/04/27 02:37:33;;;;;;;18.73;10.52;;;;;;;5.12;74.09;102380.88;5082668;28;20028;-77
2022/04/27 02:39:59;;;;;;;20.67;10.40;;;;;;;5.11;74.75;102376.47;5085642;28;20092;-77
2022/04/27 02:42:26;;;;;;;16.88;10.35;;;;;;;5.10;74.91;102379.84;5085057;28;20024;-77
2022/04/27 02:44:51;;;;;;;24.05;11.05;;;;;;;5.07;75.65;102383.13;5085538;28;20024;-77
2022/04/27 02:47:18;;;;;;;19.63;11.10;;;;;;;5.06;75.85;102386.50;5081759;28;20088;-77
2022/04/27 02:52:28;;;;;;;19.60;10.82;;;;;;;5.04;76.02;102401.00;5084044;28;20027;-78
2022/04/27 02:54:53;;;;;;;18.20;10.95;;;;;;;5.04;74.90;102388.09;5085410;28;20024;-77
2022/04/27 02:57:18;;;;;;;19.38;10.48;;;;;;;5.08;74.47;102390.06;5072169;28;20031;-77
2022/04/27 02:59:44;;;;;;;17.17;10.25;;;;;;;5.09;74.14;102391.88;5083078;28;20024;-77
2022/04/27 03:02:10;;;;;;;18.55;10.43;;;;;;;5.10;74.36;102396.25;5083451;28;20039;-77
2022/04/27 03:04:36;;;;;;;17.73;10.35;;;;;;;5.09;73.99;102389.28;5076782;28;20178;-77
2022/04/27 03:07:01;;;;;;;19.27;10.25;;;;;;;5.09;74.36;102393.56;5075201;28;20163;-78
2022/04/27 03:09:26;;;;;;;19.73;10.77;;;;;;;5.09;73.83;102393.56;5080424;28;20009;-77
2022/04/27 03:11:52;;;;;;;18.45;10.27;;;;;;;5.08;74.27;102395.22;5077460;28;20023;-77
2022/04/27 03:14:18;;;;;;;22.02;11.18;;;;;;;5.05;74.52;102395.03;5084926;28;20266;-78
2022/04/27 03:16:44;;;;;;;18.70;10.05;;;;;;;5.04;74.72;102391.56;5084981;28;20040;-77
2022/04/27 03:19:10;;;;;;;19.00;10.82;;;;;;;5.03;74.84;102394.91;5083447;28;20011;-77
2022/04/27 03:21:35;;;;;;;19.02;10.90;;;;;;;4.98;75.04;102395.38;5084950;28;20194;-77
2022/04/27 03:24:00;;;;;;;19.55;11.30;;;;;;;4.84;73.87;102394.41;5084730;28;20044;-77
2022/04/27 03:26:26;;;;;;;19.35;10.93;;;;;;;4.73;74.88;102393.59;5080392;28;20030;-77
2022/04/27 03:28:51;;;;;;;17.83;10.73;;;;;;;4.63;75.83;102402.38;5077532;28;20020;-78
2022/04/27 03:31:17;;;;;;;21.27;11.80;;;;;;;4.53;76.24;102397.31;5083331;28;20020;-78
2022/04/27 03:33:42;;;;;;;21.85;11.35;;;;;;;4.46;75.67;102405.41;5082296;28;20001;-77
2022/04/27 03:36:11;;;;;;;18.52;10.48;;;;;;;4.47;76.01;102402.03;5068714;28;20018;-77
2022/04/27 03:38:38;;;;;;;19.67;11.25;;;;;;;4.50;75.63;102404.84;5076965;28;20024;-77
2022/04/27 03:41:03;;;;;;;20.98;11.38;;;;;;;4.53;75.14;102402.47;5083999;28;20148;-77
2022/04/27 03:43:29;;;;;;;19.88;10.98;;;;;;;4.53;75.34;102400.81;5084538;28;20334;-77
2022/04/27 03:45:54;;;;;;;20.92;11.18;;;;;;;4.53;75.38;102405.97;5083603;28;20028;-77
2022/04/27 03:48:19;;;;;;;19.75;11.00;;;;;;;4.52;75.51;102408.44;5073370;28;20163;-77
2022/04/27 03:50:44;;;;;;;19.13;10.50;;;;;;;4.52;74.56;102413.63;5078961;28;20027;-78
2022/04/27 03:53:10;;;;;;;19.25;10.95;;;;;;;4.50;74.74;102415.16;5075486;28;20235;-77
2022/04/27 03:55:35;;;;;;;19.42;10.38;;;;;;;4.49;75.30;102418.53;5077906;28;20023;-77
2022/04/27 03:58:05;;;;;;;17.42;10.23;;;;;;;4.44;74.79;102417.31;5083462;28;20039;-77
2022/04/27 04:00:31;;;;;;;18.40;10.35;;;;;;;4.28;75.55;102423.91;5082578;28;20021;-77
2022/04/27 04:03:01;;;;;;;19.02;10.98;;;;;;;4.10;76.40;102426.00;5083185;28;20035;-77
2022/04/27 04:05:27;;;;;;;17.95;10.60;;;;;;;4.05;77.02;102426.44;5083722;28;20036;-77
2022/04/27 04:07:52;;;;;;;20.30;11.32;;;;;;;4.04;77.04;102422.97;5079028;28;20021;-77
2022/04/27 04:10:18;;;;;;;18.40;10.32;;;;;;;4.09;76.52;102428.47;5077788;28;20075;-78
2022/04/27 04:12:46;;;;;;;18.88;10.82;;;;;;;4.10;76.19;102437.97;5082543;28;20103;-78
2022/04/27 04:15:12;;;;;;;18.90;9.75;;;;;;;4.13;75.45;102433.09;5084102;28;20259;-77
2022/04/27 04:17:40;;;;;;;19.40;10.45;;;;;;;4.12;75.85;102436.44;5066562;28;20112;-78
2022/04/27 04:20:07;;;;;;;19.75;11.45;;;;;;;4.13;75.79;102433.09;5074709;28;20278;-78
2022/04/27 04:22:32;;;;;;;19.20;10.63;;;;;;;4.13;76.29;102431.41;5078706;28;20028;-78
2022/04/27 04:30:25;;;;;;;19.85;10.55;;;;;;;4.26;75.42;102448.69;5079450;28;20100;-77
2022/04/27 04:32:50;;;;;;;17.75;10.50;;;;;;;4.24;75.47;102439.94;5084004;28;20017;-78
2022/04/27 04:35:16;;;;;;;18.95;10.57;;;;;;;4.23;75.67;102445.91;5078707;28;20013;-78
2022/04/27 04:37:41;;;;;;;18.45;10.55;;;;;;;4.24;75.35;102447.66;5082781;28;20088;-78
2022/04/27 04:40:07;;;;;;;20.02;10.95;;;;;;;4.21;76.73;102452.59;5079784;28;20013;-77
2022/04/27 04:42:35;;;;;;;19.70;10.48;;;;;;;4.18;76.62;102452.38;5082153;28;20064;-77
2022/04/27 04:45:00;;;;;;;18.83;10.80;;;;;;;4.14;76.21;102452.91;5078669;28;20083;-77
2022/04/27 04:47:26;;;;;;;17.88;10.27;;;;;;;4.15;76.00;102465.03;5082117;28;20078;-77
2022/04/27 04:49:52;;;;;;;19.63;11.07;;;;;;;4.13;75.24;102466.63;5080858;28;20035;-78
2022/04/27 04:52:17;;;;;;;19.80;10.38;;;;;;;4.14;74.99;102470.97;5083613;28;20031;-78
2022/04/27 04:54:43;;;;;;;17.67;9.95;;;;;;;4.12;74.95;102476.03;5081708;28;20028;-78
2022/04/27 04:57:08;;;;;;;17.25;10.07;;;;;;;4.10;75.25;102474.09;5079917;28;20021;-78
2022/04/27 04:59:33;;;;;;;21.15;10.57;;;;;;;4.09;74.82;102473.22;5083052;28;20043;-78
2022/04/27 05:01:58;;;;;;;21.67;10.88;;;;;;;4.06;74.90;102478.16;5086651;28;20063;-78
2022/04/27 05:04:24;;;;;;;19.33;9.77;;;;;;;4.06;75.37;102477.25;5080337;28;20044;-78
2022/04/27 05:06:49;;;;;;;16.40;9.07;;;;;;;4.06;76.03;102477.25;5081307;28;20148;-78
2022/04/27 05:09:15;;;;;;;12.77;8.32;;;;;;;4.05;75.96;102480.59;5086272;28;20020;-78
2022/04/27 05:11:40;;;;;;;17.83;10.20;;;;;;;4.04;76.65;102487.47;5083100;28;20144;-78
2022/04/27 05:14:05;;;;;;;19.25;10.68;;;;;;;4.07;77.63;102486.75;5086716;28;20109;-78
2022/04/27 05:16:32;;;;;;;18.40;10.70;;;;;;;4.11;77.91;102486.22;5080341;28;20060;-78
2022/04/27 05:18:59;;;;;;;18.17;10.27;;;;;;;4.13;77.28;102480.41;5086760;28;20065;-78
2022/04/27 05:21:24;;;;;;;18.67;11.18;;;;;;;4.15;77.28;102488.25;5085891;28;20020;-78
2022/04/27 05:23:50;;;;;;;21.92;11.60;;;;;;;4.17;77.05;102486.69;5087169;28;20020;-77
2022/04/27 05:26:16;;;;;;;17.98;10.50;;;;;;;4.19;77.07;102495.47;5081437;28;20056;-78
2022/04/27 05:34:09;;;;;;;21.20;12.35;;;;;;;4.27;77.05;102503.78;5083261;28;20070;-77
2022/04/27 05:36:35;;;;;;;19.98;11.80;;;;;;;4.29;77.31;102503.13;5083625;28;20083;-78
2022/04/27 05:39:00;;;;;;;21.15;11.88;;;;;;;4.30;77.43;102504.91;5086999;28;20092;-78
2022/04/27 05:41:25;;;;;;;22.70;12.32;;;;;;;4.35;78.03;102511.31;5086930;28;20070;-78
2022/04/27 05:43:51;;;;;;;24.98;12.88;;;;;;;4.40;78.53;102523.66;5086111;28;20013;-78
2022/04/27 05:46:16;;;;;;;21.48;11.60;;;;;;;4.43;78.96;102518.72;5084915;28;20184;-77
2022/04/27 05:48:41;;;;;;;22.70;11.80;;;;;;;4.48;79.18;102512.25;5083332;28;20024;-77
2022/04/27 05:51:07;;;;;;;20.88;12.23;;;;;;;4.55;79.50;102521.34;5085498;28;20266;-78
2022/04/27 05:53:32;;;;;;;24.42;12.88;;;;;;;4.59;80.06;102521.72;5081431;28;20084;-77
2022/04/27 05:55:57;;;;;;;24.95;12.50;;;;;;;4.66;80.60;102523.97;5085035;28;20290;-77
2022/04/27 05:58:22;;;;;;;26.13;12.82;;;;;;;4.74;80.85;102524.53;5086348;28;20024;-77
2022/04/27 06:00:49;;;;;;;22.25;12.55;;;;;;;4.81;81.18;102523.31;5085893;28;20028;-77
2022/04/27 06:03:14;;;;;;;23.25;12.52;;;;;;;4.86;81.55;102519.38;5084453;28;20017;-77
2022/04/27 06:05:40;;;;;;;23.13;13.02;;;;;;;4.95;82.68;102522.59;5082920;28;20024;-77
2022/04/27 06:08:06;;;;;;;26.23;12.65;;;;;;;5.02;82.51;102527.44;5085931;28;20266;-76
2022/04/27 06:10:32;;;;;;;29.13;13.75;;;;;;;5.12;83.31;102533.31;5085536;28;20263;-76
2022/04/27 06:12:57;;;;;;;25.08;13.27;;;;;;;5.21;83.08;102526.22;5086252;28;20055;-76
2022/04/27 06:15:22;;;;;;;26.95;13.18;;;;;;;5.33;82.90;102540.03;5082337;28;20016;-76
2022/04/27 06:17:47;;;;;;;24.70;13.30;;;;;;;5.43;82.92;102530.34;5072297;28;20029;-76
2022/04/27 06:20:13;;;;;;;26.00;12.73;;;;;;;5.92;82.90;102538.97;5085787;28;20183;-76
2022/04/27 06:22:38;;;;;;;24.88;13.13;;;;;;;8.71;74.56;102527.44;5085622;28;20069;-76
2022/04/27 06:25:04;;;;;;;26.60;12.27;;;;;;;11.96;64.07;102537.25;5078503;28;20072;-76
2022/04/27 06:27:29;;;;;;;24.30;11.45;;;;;;;14.60;54.34;102529.38;5086170;28;20071;-76
2022/04/27 06:29:55;;;;;;;21.50;11.15;;;;;;;16.83;48.59;102528.94;5070421;28;20024;-76
2022/04/27 06:32:20;;;;;;;23.23;11.57;;;;;;;18.64;43.42;102532.75;5085854;28;20083;-76
2022/04/27 06:34:45;;;;;;;25.55;12.48;;;;;;;20.11;39.86;102525.19;5084151;28;20029;-76
2022/04/27 06:37:11;;;;;;;19.83;12.10;;;;;;;20.66;37.99;102535.44;5085871;28;20013;-76
2022/04/27 06:39:38;;;;;;;22.48;12.43;;;;;;;18.98;40.37;102542.16;5081450;28;20028;-77
2022/04/27 06:42:04;;;;;;;29.00;14.02;;;;;;;17.13;43.91;102539.38;5085834;28;20047;-76
2022/04/27 06:44:29;;;;;;;31.67;14.63;;;;;;;15.58;47.21;102547.41;5083821;28;20036;-77
2022/04/27 06:46:54;;;;;;;30.98;15.55;;;;;;;14.32;50.25;102546.75;5085490;28;20012;-77
2022/04/27 06:49:20;;;;;;;34.10;15.77;;;;;;;13.34;53.50;102547.47;5073489;28;20274;-77
2022/04/27 06:51:45;;;;;;;36.45;16.27;;;;;;;12.60;56.00;102560.13;5076853;28;20024;-77
2022/04/27 06:54:10;;;;;;;33.60;16.23;;;;;;;12.01;57.46;102564.50;5083337;28;20040;-77
2022/04/27 06:56:35;;;;;;;42.53;17.95;;;;;;;11.54;59.70;102569.25;5084488;28;20091;-77
2022/04/27 06:59:01;;;;;;;40.85;17.70;;;;;;;11.18;61.74;102561.47;5084743;28;20029;-77
2022/04/27 07:01:26;;;;;;;41.67;17.38;;;;;;;10.92;62.14;102562.75;5084186;28;20057;-77
2022/04/27 07:03:55;;;;;;;41.67;18.13;;;;;;;10.67;61.44;102565.84;5084384;28;20059;-76
2022/04/27 07:06:21;;;;;;;40.60;17.60;;;;;;;10.47;63.20;102567.44;5081364;28;20028;-77
2022/04/27 07:08:47;;;;;;;45.92;18.77;;;;;;;10.33;64.09;102566.69;5084401;28;20294;-77
2022/04/27 07:11:12;;;;;;;44.53;18.85;;;;;;;10.24;64.28;102565.38;5083238;28;20024;-77
2022/04/27 07:13:38;;;;;;;43.70;18.17;;;;;;;10.17;63.03;102568.47;5083616;28;20076;-77
2022/04/27 07:16:27;;;;;;;41.40;18.70;;;;;;;10.13;64.19;102569.13;5028665;28;20148;-76
2022/04/27 07:18:53;;;;;;;44.65;18.52;;;;;;;10.07;64.23;102567.09;5084557;28;20024;-77
2022/04/27 07:21:19;;;;;;;42.50;18.85;;;;;;;10.07;65.33;102572.28;5082763;28;20036;-81
2022/04/27 07:23:44;;;;;;;44.80;19.42;;;;;;;10.09;65.85;102575.91;5075299;28;20255;-81
2022/04/27 07:26:09;;;;;;;43.47;18.45;;;;;;;10.10;64.54;102576.78;5082738;28;20024;-81
2022/04/27 07:28:36;;;;;;;42.33;19.98;;;;;;;10.11;64.57;102583.78;5081181;28;20096;-80
2022/04/27 07:31:02;;;;;;;43.47;19.27;;;;;;;10.17;65.60;102578.91;5081100;28;20189;-81
2022/04/27 07:33:27;;;;;;;44.70;20.77;;;;;;;10.22;64.58;102579.13;5078086;28;20031;-81
2022/04/27 07:35:52;;;;;;;38.90;19.25;;;;;;;10.26;64.45;102588.91;5081678;28;20066;-81
2022/04/27 07:38:18;;;;;;;41.38;18.50;;;;;;;10.26;62.18;102588.91;5082746;28;20029;-80
2022/04/27 07:40:43;;;;;;;37.63;18.50;;;;;;;10.25;61.82;102592.31;5083305;28;20040;-81
2022/04/27 07:43:08;;;;;;;38.83;17.67;;;;;;;10.26;61.47;102595.00;5067053;28;20009;-81
2022/04/27 07:45:33;;;;;;;43.08;18.25;;;;;;;10.32;62.38;102591.84;5081896;28;20024;-81
2022/04/27 07:47:59;;;;;;;40.53;18.38;;;;;;;10.36;61.05;102598.16;5081378;28;20372;-81
2022/04/27 07:50:24;;;;;;;39.97;17.85;;;;;;;10.42;63.60;102586.31;5073024;28;20151;-81
2022/04/27 07:52:49;;;;;;;36.30;17.40;;;;;;;10.50;63.77;102591.97;5072778;28;20012;-81
2022/04/27 07:55:15;;;;;;;36.38;17.30;;;;;;;10.58;62.07;102592.34;5081801;28;20027;-81
2022/04/27 07:57:40;;;;;;;36.25;17.48;;;;;;;10.63;60.12;102593.50;5077419;28;20279;-81
2022/04/27 08:00:08;;;;;;;31.23;15.15;;;;;;;10.71;59.72;102601.69;5075355;28;20028;-82
2022/04/27 08:02:35;;;;;;;34.30;14.98;;;;;;;10.75;58.64;102601.03;5077110;28;20089;-82
2022/04/27 08:05:01;;;;;;;35.78;15.98;;;;;;;10.78;57.81;102593.38;5082961;28;20174;-82
2022/04/27 08:07:37;;;;;;;39.00;16.85;;;;;;;10.83;58.92;102598.81;5076873;28;20008;-71
2022/04/27 08:10:21;;;;;;;35.55;15.75;;;;;;;10.91;58.27;102602.72;5078504;28;20025;-71
2022/04/27 08:12:49;;;;;;;30.98;15.52;;;;;;;10.98;58.23;102598.69;5079716;28;20027;-71
2022/04/27 08:15:16;;;;;;;32.60;15.15;;;;;;;11.02;58.31;102604.16;5068582;28;20013;-71
2022/04/27 08:17:56;;;;;;;34.65;14.93;;;;;;;11.08;57.96;102606.16;5076592;28;20278;-71
2022/04/27 08:23:09;;;;;;;21.20;11.70;;;;;;;11.29;58.73;102612.44;5076719;28;20027;-71
2022/04/27 08:25:35;;;;;;;20.52;10.15;;;;;;;11.37;54.67;102612.81;5083936;28;20021;-71
2022/04/27 08:28:03;;;;;;;25.98;11.45;;;;;;;11.45;55.60;102614.06;5078006;28;20021;-72
2022/04/27 08:30:28;;;;;;;20.55;10.90;;;;;;;11.51;53.81;102615.19;5080275;28;20047;-71
2022/04/27 08:32:59;;;;;;;18.40;9.65;;;;;;;11.60;56.00;102613.94;5082694;28;20258;-72
2022/04/27 08:35:25;;;;;;;23.17;9.88;;;;;;;11.64;52.69;102620.19;5087674;28;20021;-72
2022/04/27 08:37:50;;;;;;;27.88;11.93;;;;;;;11.69;55.14;102620.41;5086558;28;20073;-72
2022/04/27 08:40:16;;;;;;;24.10;11.70;;;;;;;11.77;55.88;102617.31;5086752;28;20035;-72
2022/04/27 08:42:41;;;;;;;22.15;10.70;;;;;;;11.86;54.25;102618.59;5087375;28;20175;-72
2022/04/27 08:45:07;;;;;;;21.42;10.50;;;;;;;11.92;52.36;102622.41;5084309;28;20017;-72
2022/04/27 08:47:33;;;;;;;23.85;11.77;;;;;;;11.96;52.59;102619.16;5082144;28;20219;-72
2022/04/27 08:50:10;;;;;;;20.73;10.75;;;;;;;12.03;54.93;102622.03;5081678;28;20013;-72
2022/04/27 08:52:35;;;;;;;25.98;11.35;;;;;;;12.05;51.39;102618.69;5087739;28;20049;-72
2022/04/27 08:55:01;;;;;;;26.35;11.90;;;;;;;12.07;51.89;102629.19;5077745;28;20025;-72
2022/04/27 08:57:26;;;;;;;22.85;11.23;;;;;;;12.01;50.74;102629.81;5087655;28;20044;-72
2022/04/27 08:59:51;;;;;;;24.77;12.40;;;;;;;12.04;52.04;102632.56;5074886;28;20031;-72
2022/04/27 09:02:26;;;;;;;25.48;11.95;;;;;;;12.02;50.66;102634.22;5076251;28;20035;-72
2022/04/27 09:05:20;;;;;;;25.30;11.30;;;;;;;12.07;53.44;102627.47;5083249;28;20375;-72
2022/04/27 09:07:51;;;;;;;26.05;11.07;;;;;;;12.14;50.77;102631.25;5086821;28;20138;-72
2022/04/27 09:10:23;;;;;;;23.92;11.75;;;;;;;12.21;51.77;102622.88;5086798;28;20099;-72
2022/04/27 09:12:50;;;;;;;21.15;11.23;;;;;;;12.27;51.96;102625.75;5087529;28;20062;-72
2022/04/27 09:15:18;;;;;;;23.42;11.43;;;;;;;12.36;53.25;102625.28;5078613;28;20028;-72
2022/04/27 09:20:47;;;;;;;21.08;11.50;;;;;;;12.48;51.91;102627.56;5086759;28;20081;-72
2022/04/27 09:23:32;;;;;;;35.10;12.40;;;;;;;12.61;53.80;102632.50;5087352;28;20036;-72
2022/04/27 09:26:13;;;;;;;26.42;12.38;;;;;;;12.66;49.79;102620.53;5079331;28;20107;-72
2022/04/27 09:28:38;;;;;;;23.50;12.23;;;;;;;12.70;51.58;102619.84;5086588;28;20013;-73
2022/04/27 09:31:03;;;;;;;23.40;11.95;;;;;;;12.79;50.72;102626.25;5087089;28;20031;-73
2022/04/27 09:33:30;;;;;;;24.48;12.48;;;;;;;12.81;48.78;102616.78;5085603;28;20094;-73
2022/04/27 09:35:56;;;;;;;23.92;12.30;;;;;;;12.85;49.35;102622.19;5085928;28;20021;-72
2022/04/27 09:38:21;;;;;;;20.58;11.27;;;;;;;12.92;50.43;102622.47;5085026;28;20016;-73
2022/04/27 09:40:56;;;;;;;22.88;11.68;;;;;;;13.00;49.99;102627.19;5086928;28;20020;-72
2022/04/27 09:43:41;;;;;;;30.42;12.93;;;;;;;13.13;52.51;102625.09;5082587;28;20304;-73
2022/04/27 09:46:17;;;;;;;26.48;12.43;;;;;;;13.27;51.93;102623.06;5086071;28;20350;-73
2022/04/27 09:48:46;;;;;;;26.05;13.32;;;;;;;13.42;50.65;102620.19;5075513;28;20025;-73
2022/04/27 09:51:13;;;;;;;25.63;12.97;;;;;;;13.48;51.01;102612.59;5085667;28;20087;-73
2022/04/27 09:53:42;;;;;;;24.33;13.10;;;;;;;13.49;50.27;102628.34;5086792;28;20549;-73
2022/04/27 09:56:11;;;;;;;28.65;13.30;;;;;;;13.49;48.86;102625.75;5083850;28;20025;-73
2022/04/27 09:58:43;;;;;;;30.45;13.77;;;;;;;13.51;52.93;102625.81;5083708;28;20030;-72
2022/04/27 10:01:10;;;;;;;28.20;13.70;;;;;;;13.48;50.35;102617.81;5079935;28;20043;-72
2022/04/27 10:03:36;;;;;;;24.17;12.85;;;;;;;13.54;50.08;102620.69;5085430;28;20079;-73
2022/04/27 10:06:02;;;;;;;28.45;13.38;;;;;;;13.57;47.86;102626.06;5085876;28;20017;-73
2022/04/27 10:08:28;;;;;;;27.45;13.18;;;;;;;13.57;48.49;102631.31;5086553;28;20020;-72
2022/04/27 10:10:54;;;;;;;27.90;14.48;;;;;;;13.53;48.95;102632.91;5082722;28;20088;-72
2022/04/27 10:13:19;;;;;;;24.38;13.48;;;;;;;13.57;50.74;102626.06;5085792;28;20090;-73
2022/04/27 10:15:46;;;;;;;27.70;14.88;;;;;;;13.52;47.55;102625.84;5083762;28;20020;-72
2022/04/27 10:18:17;;;;;;;27.42;14.63;;;;;;;13.54;48.94;102631.16;5085905;28;20032;-73
2022/04/27 10:20:43;;;;;;;29.02;14.77;;;;;;;13.51;46.30;102628.41;5083168;28;20194;-73
2022/04/27 10:23:14;;;;;;;31.73;15.75;;;;;;;13.43;46.95;102622.00;5085336;28;20020;-73
2022/04/27 10:25:40;;;;;;;27.77;14.73;;;;;;;13.41;47.69;102619.28;5086199;28;20050;-73
2022/04/27 10:28:22;;;;;;;26.58;13.93;;;;;;;13.53;50.37;102619.81;5085524;28;20286;-73
2022/04/27 10:30:48;;;;;;;31.77;15.45;;;;;;;13.61;45.86;102616.59;5086024;28;20020;-73
2022/04/27 10:33:47;;;;;;;29.08;15.60;;;;;;;13.62;47.76;102613.16;5084466;28;20099;-73
2022/04/27 10:36:28;;;;;;;27.88;14.80;;;;;;;13.71;47.86;102613.50;5085292;28;20281;-73
2022/04/27 10:39:09;;;;;;;29.98;13.60;;;;;;;13.83;50.24;102611.38;5084384;28;20023;-73
2022/04/27 10:41:35;;;;;;;29.80;14.55;;;;;;;13.93;50.67;102609.97;5085800;28;20167;-73
2022/04/27 10:44:00;;;;;;;25.60;13.80;;;;;;;14.06;50.85;102599.16;5084918;28;20020;-73
2022/04/27 10:46:39;;;;;;;26.27;13.70;;;;;;;14.21;49.57;102600.56;5085845;28;20356;-73
2022/04/27 10:49:19;;;;;;;27.60;15.15;;;;;;;14.35;49.73;102603.66;5073535;28;20393;-82
2022/04/27 10:52:05;;;;;;;27.00;14.52;;;;;;;14.46;47.98;102602.31;5077952;28;20114;-81
2022/04/27 10:54:33;;;;;;;27.25;14.75;;;;;;;14.48;46.32;102605.00;5080114;28;20032;-80
2022/04/27 10:57:30;;;;;;;26.08;14.60;;;;;;;14.53;48.73;102596.44;5077402;28;20024;-82
2022/04/27 11:00:03;;;;;;;28.48;14.82;;;;;;;14.50;45.69;102600.72;5077229;28;20024;-84
2022/04/27 11:02:37;;;;;;;23.85;14.10;;;;;;;14.39;44.96;102601.19;5080717;28;20056;-85
2022/04/27 11:05:04;;;;;;;26.08;14.18;;;;;;;14.34;46.39;102602.78;5078275;28;20021;-84
2022/04/27 11:07:29;;;;;;;26.38;14.60;;;;;;;14.32;46.66;102599.19;5079449;28;20089;-85
2022/04/27 11:09:57;;;;;;;26.40;14.77;;;;;;;14.35;45.69;102604.56;5082473;28;20213;-83
2022/04/27 11:12:24;;;;;;;28.42;15.95;;;;;;;14.37;46.09;102604.63;5079336;28;20341;-84
2022/04/27 11:14:58;;;;;;;27.30;14.05;;;;;;;14.46;48.45;102599.69;5082617;28;20036;-83
2022/04/27 11:17:32;;;;;;;26.65;14.60;;;;;;;14.53;46.36;102593.81;5073322;28;20039;-83
2022/04/27 11:19:58;;;;;;;28.27;14.82;;;;;;;14.62;45.78;102588.03;5084021;28;20028;-84
2022/04/27 11:22:23;;;;;;;28.77;14.57;;;;;;;14.74;48.36;102598.97;5078952;28;20069;-83
2022/04/27 11:24:49;;;;;;;27.23;14.50;;;;;;;14.87;47.08;102588.88;5084997;28;20085;-84
2022/04/27 11:27:27;;;;;;;26.45;13.30;;;;;;;15.01;49.43;102595.50;5075786;28;20152;-84
2022/04/27 11:29:54;;;;;;;25.65;13.68;;;;;;;15.17;51.11;102586.41;5082689;28;20090;-85
2022/04/27 11:32:19;;;;;;;22.65;13.57;;;;;;;15.25;48.99;102599.75;5082625;28;20087;-83
2022/04/27 11:34:49;;;;;;;26.05;13.52;;;;;;;15.28;47.46;102598.16;5078926;28;20028;-83
2022/04/27 11:37:19;;;;;;;24.27;15.23;;;;;;;15.30;45.88;102595.56;5072425;28;20044;-83